Antalya Airport

Airport
ICAO code: 
LTAI
IATA Code: 
AYT
Summary
ICAO Region: 
EUR
Territory: 
Location: 
Antayla,
Serving: 
Antayla
Elevation: 
177 ft
Coordinates: 
Aerial View: 
36° 54' 3.07" N, 30° 48' 4.117" E
Metar
Observation
LTAI 181050Z 01005KT 340V070 9999 BKN030 12/03 Q1015 NOSIG
Station
Antalya
Date/Time
2022-01-18 10:50:00
Wind direction
10°
Wind speed
05 kts
Lowest cloud amount
broken clouds
Temperature
12°C
Dew point
3°C
Humidity
54%
QNH
1015 hPa
Weather condition
n/a

Description

International airport serving Antalya and surrounding region in Turkey.

Climatology

Dry-summer subtropical ”Mediterranean" climate (Köppen climate classification Csa) - characterized by hot, dry summers and mild winters. During the summer, subtropical high pressure cells dominate, making rainfall unlikely except for the occasional thunderstorm. In the winter, periodic storms bring rain.

Runways

Designator Length Width Surface Rops
18R/36L 2990 45 concrete Yes/Yes
18C/36C 3400 45 concrete Yes/Yes
18L/36R 3400 45 CON Yes/Yes
Airport map: 
Aerial View: 

SKYbrary Partners:

Safety knowledge contributed by: